sensor_id;sensor_type;location;lat;lon;timestamp;P1;durP1;ratioP1;P2;durP2;ratioP2
1004;SDS011;491;53.480;10.174;2023-04-01T00:02:14;5.70;;;1.70;;
1004;SDS011;491;53.480;10.174;2023-04-01T00:04:44;5.97;;;1.93;;
1004;SDS011;491;53.480;10.174;2023-04-01T00:07:10;5.97;;;2.83;;
1004;SDS011;491;53.480;10.174;2023-04-01T00:09:51;5.40;;;2.23;;
1004;SDS011;491;53.480;10.174;2023-04-01T00:12:26;3.33;;;2.17;;
1004;SDS011;491;53.480;10.174;2023-04-01T00:14:52;4.10;;;2.33;;
1004;SDS011;491;53.480;10.174;2023-04-01T00:17:44;5.00;;;2.03;;
1004;SDS011;491;53.480;10.174;2023-04-01T00:20:10;8.47;;;2.30;;
1004;SDS011;491;53.480;10.174;2023-04-01T00:22:37;2.80;;;1.87;;
1004;SDS011;491;53.480;10.174;2023-04-01T00:25:03;3.50;;;1.77;;
1004;SDS011;491;53.480;10.174;2023-04-01T00:27:33;3.07;;;1.67;;
1004;SDS011;491;53.480;10.174;2023-04-01T00:30:00;5.03;;;2.80;;
1004;SDS011;491;53.480;10.174;2023-04-01T00:32:32;4.23;;;1.50;;
1004;SDS011;491;53.480;10.174;2023-04-01T00:35:01;6.80;;;2.43;;
1004;SDS011;491;53.480;10.174;2023-04-01T00:37:29;7.90;;;2.13;;
1004;SDS011;491;53.480;10.174;2023-04-01T00:40:32;3.20;;;1.90;;
1004;SDS011;491;53.480;10.174;2023-04-01T00:43:01;5.10;;;1.73;;
1004;SDS011;491;53.480;10.174;2023-04-01T00:45:32;4.60;;;1.63;;
1004;SDS011;491;53.480;10.174;2023-04-01T00:48:10;6.70;;;2.20;;
1004;SDS011;491;53.480;10.174;2023-04-01T00:51:09;2.17;;;1.37;;
1004;SDS011;491;53.480;10.174;2023-04-01T00:53:45;6.27;;;1.90;;
1004;SDS011;491;53.480;10.174;2023-04-01T00:56:14;2.90;;;1.37;;
1004;SDS011;491;53.480;10.174;2023-04-01T00:58:42;5.77;;;2.30;;
1004;SDS011;491;53.480;10.174;2023-04-01T01:01:09;3.73;;;1.60;;
1004;SDS011;491;53.480;10.174;2023-04-01T01:03:39;5.87;;;2.13;;
1004;SDS011;491;53.480;10.174;2023-04-01T01:06:24;3.80;;;2.00;;
1004;SDS011;491;53.480;10.174;2023-04-01T01:08:56;5.20;;;2.07;;
1004;SDS011;491;53.480;10.174;2023-04-01T01:11:31;3.63;;;1.63;;
1004;SDS011;491;53.480;10.174;2023-04-01T01:14:01;2.80;;;1.70;;
1004;SDS011;491;53.480;10.174;2023-04-01T01:16:30;7.10;;;2.40;;
1004;SDS011;491;53.480;10.174;2023-04-01T01:37:33;2.93;;;1.10;;
1004;SDS011;491;53.480;10.174;2023-04-01T01:40:00;3.50;;;0.97;;
1004;SDS011;491;53.480;10.174;2023-04-01T01:42:27;5.80;;;2.00;;
1004;SDS011;491;53.480;10.174;2023-04-01T01:44:54;4.23;;;1.40;;
1004;SDS011;491;53.480;10.174;2023-04-01T01:47:22;3.37;;;1.70;;
1004;SDS011;491;53.480;10.174;2023-04-01T01:49:51;5.47;;;2.40;;
1004;SDS011;491;53.480;10.174;2023-04-01T01:52:17;4.90;;;1.93;;
1004;SDS011;491;53.480;10.174;2023-04-01T01:54:48;7.33;;;2.13;;
1004;SDS011;491;53.480;10.174;2023-04-01T01:57:14;6.00;;;1.80;;
1004;SDS011;491;53.480;10.174;2023-04-01T01:59:40;4.03;;;1.60;;
1004;SDS011;491;53.480;10.174;2023-04-01T02:02:09;2.90;;;1.23;;
1004;SDS011;491;53.480;10.174;2023-04-01T02:04:37;1.43;;;1.03;;
1004;SDS011;491;53.480;10.174;2023-04-01T02:07:07;2.60;;;1.07;;
1004;SDS011;491;53.480;10.174;2023-04-01T02:09:39;2.50;;;1.10;;
1004;SDS011;491;53.480;10.174;2023-04-01T02:12:09;5.60;;;1.57;;
1004;SDS011;491;53.480;10.174;2023-04-01T02:17:20;4.83;;;1.70;;
1004;SDS011;491;53.480;10.174;2023-04-01T02:19:50;3.63;;;1.10;;
1004;SDS011;491;53.480;10.174;2023-04-01T02:22:18;4.33;;;1.87;;
1004;SDS011;491;53.480;10.174;2023-04-01T02:24:46;3.80;;;1.67;;
1004;SDS011;491;53.480;10.174;2023-04-01T02:27:13;3.73;;;1.63;;
1004;SDS011;491;53.480;10.174;2023-04-01T02:29:39;2.67;;;1.03;;
1004;SDS011;491;53.480;10.174;2023-04-01T02:32:05;4.20;;;1.23;;
1004;SDS011;491;53.480;10.174;2023-04-01T02:34:31;3.40;;;1.47;;
1004;SDS011;491;53.480;10.174;2023-04-01T02:36:58;3.23;;;1.20;;
1004;SDS011;491;53.480;10.174;2023-04-01T02:39:24;3.93;;;1.37;;
1004;SDS011;491;53.480;10.174;2023-04-01T02:41:52;6.80;;;1.60;;
1004;SDS011;491;53.480;10.174;2023-04-01T02:44:18;8.77;;;1.53;;
1004;SDS011;491;53.480;10.174;2023-04-01T02:46:44;2.27;;;0.90;;
1004;SDS011;491;53.480;10.174;2023-04-01T02:49:10;2.50;;;0.90;;
1004;SDS011;491;53.480;10.174;2023-04-01T02:51:37;2.40;;;1.03;;
1004;SDS011;491;53.480;10.174;2023-04-01T02:54:03;7.10;;;1.13;;
1004;SDS011;491;53.480;10.174;2023-04-01T02:56:29;2.63;;;1.40;;
1004;SDS011;491;53.480;10.174;2023-04-01T02:58:55;4.33;;;1.40;;
1004;SDS011;491;53.480;10.174;2023-04-01T03:01:21;3.70;;;1.27;;
1004;SDS011;491;53.480;10.174;2023-04-01T03:03:48;2.73;;;1.10;;
1004;SDS011;491;53.480;10.174;2023-04-01T03:06:14;5.80;;;1.97;;
1004;SDS011;491;53.480;10.174;2023-04-01T03:08:42;4.47;;;1.43;;
1004;SDS011;491;53.480;10.174;2023-04-01T03:11:09;3.00;;;0.60;;
1004;SDS011;491;53.480;10.174;2023-04-01T03:13:36;5.07;;;1.20;;
1004;SDS011;491;53.480;10.174;2023-04-01T03:16:02;3.37;;;1.37;;
1004;SDS011;491;53.480;10.174;2023-04-01T03:18:28;4.30;;;1.03;;
1004;SDS011;491;53.480;10.174;2023-04-01T03:20:54;5.80;;;1.83;;
1004;SDS011;491;53.480;10.174;2023-04-01T03:23:20;2.53;;;1.33;;
1004;SDS011;491;53.480;10.174;2023-04-01T03:25:47;2.57;;;1.13;;
1004;SDS011;491;53.480;10.174;2023-04-01T03:28:13;4.97;;;1.50;;
1004;SDS011;491;53.480;10.174;2023-04-01T03:30:39;2.07;;;0.70;;
1004;SDS011;491;53.480;10.174;2023-04-01T03:33:05;3.67;;;1.40;;
1004;SDS011;491;53.480;10.174;2023-04-01T03:35:31;4.40;;;1.57;;
1004;SDS011;491;53.480;10.174;2023-04-01T03:37:57;3.20;;;1.60;;
1004;SDS011;491;53.480;10.174;2023-04-01T03:40:24;4.40;;;2.00;;
1004;SDS011;491;53.480;10.174;2023-04-01T03:42:51;2.57;;;1.17;;
1004;SDS011;491;53.480;10.174;2023-04-01T03:45:17;5.53;;;2.43;;
1004;SDS011;491;53.480;10.174;2023-04-01T03:47:47;3.60;;;1.37;;
1004;SDS011;491;53.480;10.174;2023-04-01T03:50:12;5.80;;;2.63;;
1004;SDS011;491;53.480;10.174;2023-04-01T03:52:40;4.37;;;1.67;;
1004;SDS011;491;53.480;10.174;2023-04-01T03:55:18;4.33;;;1.17;;
1004;SDS011;491;53.480;10.174;2023-04-01T03:57:44;4.40;;;1.83;;
1004;SDS011;491;53.480;10.174;2023-04-01T04:00:11;3.03;;;1.30;;
1004;SDS011;491;53.480;10.174;2023-04-01T04:02:37;2.53;;;1.23;;
1004;SDS011;491;53.480;10.174;2023-04-01T04:05:03;4.67;;;2.50;;
1004;SDS011;491;53.480;10.174;2023-04-01T04:07:33;3.30;;;1.57;;
1004;SDS011;491;53.480;10.174;2023-04-01T04:09:59;4.40;;;2.63;;
1004;SDS011;491;53.480;10.174;2023-04-01T04:12:25;3.57;;;1.63;;
1004;SDS011;491;53.480;10.174;2023-04-01T04:14:51;3.00;;;1.30;;
1004;SDS011;491;53.480;10.174;2023-04-01T04:17:17;6.93;;;2.20;;
1004;SDS011;491;53.480;10.174;2023-04-01T04:19:43;3.80;;;1.63;;
1004;SDS011;491;53.480;10.174;2023-04-01T04:22:09;9.80;;;3.43;;
1004;SDS011;491;53.480;10.174;2023-04-01T04:24:35;4.10;;;2.00;;
1004;SDS011;491;53.480;10.174;2023-04-01T04:27:02;6.93;;;2.10;;
1004;SDS011;491;53.480;10.174;2023-04-01T04:29:28;4.33;;;2.30;;
1004;SDS011;491;53.480;10.174;2023-04-01T04:31:57;7.73;;;2.90;;
1004;SDS011;491;53.480;10.174;2023-04-01T04:34:25;6.37;;;2.17;;
1004;SDS011;491;53.480;10.174;2023-04-01T04:36:51;6.37;;;3.33;;
1004;SDS011;491;53.480;10.174;2023-04-01T04:39:17;3.80;;;2.00;;
1004;SDS011;491;53.480;10.174;2023-04-01T04:41:43;6.57;;;2.13;;
1004;SDS011;491;53.480;10.174;2023-04-01T04:44:11;5.10;;;2.50;;
1004;SDS011;491;53.480;10.174;2023-04-01T04:46:43;3.63;;;2.20;;
1004;SDS011;491;53.480;10.174;2023-04-01T04:49:09;5.30;;;1.90;;
1004;SDS011;491;53.480;10.174;2023-04-01T04:51:40;3.60;;;2.53;;
1004;SDS011;491;53.480;10.174;2023-04-01T04:54:09;3.53;;;1.70;;
1004;SDS011;491;53.480;10.174;2023-04-01T04:56:37;5.37;;;2.27;;
1004;SDS011;491;53.480;10.174;2023-04-01T04:59:03;4.17;;;1.97;;
1004;SDS011;491;53.480;10.174;2023-04-01T05:01:31;6.20;;;3.27;;
1004;SDS011;491;53.480;10.174;2023-04-01T05:03:59;3.27;;;2.00;;
1004;SDS011;491;53.480;10.174;2023-04-01T05:06:27;6.30;;;3.37;;
1004;SDS011;491;53.480;10.174;2023-04-01T05:08:55;4.50;;;2.30;;
1004;SDS011;491;53.480;10.174;2023-04-01T05:11:30;4.20;;;2.00;;
1004;SDS011;491;53.480;10.174;2023-04-01T05:13:56;3.63;;;2.17;;
1004;SDS011;491;53.480;10.174;2023-04-01T05:16:25;6.40;;;2.90;;
1004;SDS011;491;53.480;10.174;2023-04-01T05:18:52;3.07;;;2.17;;
1004;SDS011;491;53.480;10.174;2023-04-01T05:21:18;4.03;;;1.50;;
1004;SDS011;491;53.480;10.174;2023-04-01T05:23:47;4.10;;;1.80;;
1004;SDS011;491;53.480;10.174;2023-04-01T05:26:17;4.30;;;1.83;;
1004;SDS011;491;53.480;10.174;2023-04-01T05:28:43;4.07;;;1.83;;
1004;SDS011;491;53.480;10.174;2023-04-01T05:31:10;3.17;;;1.20;;
1004;SDS011;491;53.480;10.174;2023-04-01T05:33:42;6.33;;;1.60;;
1004;SDS011;491;53.480;10.174;2023-04-01T05:36:16;5.17;;;2.03;;
1004;SDS011;491;53.480;10.174;2023-04-01T05:38:54;2.80;;;1.23;;
1004;SDS011;491;53.480;10.174;2023-04-01T05:41:21;4.53;;;2.10;;
1004;SDS011;491;53.480;10.174;2023-04-01T05:43:48;4.88;;;2.25;;
1004;SDS011;491;53.480;10.174;2023-04-01T05:46:14;5.63;;;2.60;;
1004;SDS011;491;53.480;10.174;2023-04-01T05:48:41;4.40;;;1.97;;
1004;SDS011;491;53.480;10.174;2023-04-01T05:51:11;4.83;;;3.17;;
1004;SDS011;491;53.480;10.174;2023-04-01T05:53:42;4.43;;;2.73;;
1004;SDS011;491;53.480;10.174;2023-04-01T05:56:09;3.07;;;1.60;;
1004;SDS011;491;53.480;10.174;2023-04-01T05:58:36;1.20;;;0.40;;
1004;SDS011;491;53.480;10.174;2023-04-01T06:01:10;2.00;;;0.50;;
1004;SDS011;491;53.480;10.174;2023-04-01T06:03:56;1.17;;;0.20;;
1004;SDS011;491;53.480;10.174;2023-04-01T06:06:29;0.60;;;0.20;;
1004;SDS011;491;53.480;10.174;2023-04-01T06:09:05;0.70;;;0.20;;
1004;SDS011;491;53.480;10.174;2023-04-01T06:11:37;0.50;;;0.20;;
1004;SDS011;491;53.480;10.174;2023-04-01T06:14:17;0.45;;;0.20;;
1004;SDS011;491;53.480;10.174;2023-04-01T06:16:48;0.60;;;0.20;;
1004;SDS011;491;53.480;10.174;2023-04-01T06:28:04;0.70;;;0.20;;
1004;SDS011;491;53.480;10.174;2023-04-01T06:33:17;1.00;;;0.30;;
1004;SDS011;491;53.480;10.174;2023-04-01T06:38:22;0.57;;;0.20;;
1004;SDS011;491;53.480;10.174;2023-04-01T06:41:00;0.50;;;0.20;;
1004;SDS011;491;53.480;10.174;2023-04-01T06:43:37;1.50;;;0.27;;
1004;SDS011;491;53.480;10.174;2023-04-01T06:46:23;0.50;;;0.20;;
1004;SDS011;491;53.480;10.174;2023-04-01T06:49:00;0.83;;;0.50;;
1004;SDS011;491;53.480;10.174;2023-04-01T06:51:34;0.93;;;0.20;;
1004;SDS011;491;53.480;10.174;2023-04-01T06:54:11;2.77;;;0.33;;
1004;SDS011;491;53.480;10.174;2023-04-01T06:56:44;0.77;;;0.30;;
1004;SDS011;491;53.480;10.174;2023-04-01T06:59:19;0.90;;;0.20;;
1004;SDS011;491;53.480;10.174;2023-04-01T07:01:50;0.40;;;0.20;;
1004;SDS011;491;53.480;10.174;2023-04-01T07:04:28;0.50;;;0.20;;
1004;SDS011;491;53.480;10.174;2023-04-01T07:07:08;0.63;;;0.23;;
1004;SDS011;491;53.480;10.174;2023-04-01T07:09:40;2.10;;;0.30;;
1004;SDS011;491;53.480;10.174;2023-04-01T07:14:54;1.33;;;0.50;;
1004;SDS011;491;53.480;10.174;2023-04-01T07:17:22;0.53;;;0.20;;
1004;SDS011;491;53.480;10.174;2023-04-01T07:22:35;0.63;;;0.20;;
1004;SDS011;491;53.480;10.174;2023-04-01T07:25:14;1.37;;;0.30;;
1004;SDS011;491;53.480;10.174;2023-04-01T07:28:00;2.00;;;0.30;;
1004;SDS011;491;53.480;10.174;2023-04-01T07:30:28;0.97;;;0.20;;
1004;SDS011;491;53.480;10.174;2023-04-01T07:35:27;0.40;;;0.20;;
1004;SDS011;491;53.480;10.174;2023-04-01T07:38:05;0.90;;;0.20;;
1004;SDS011;491;53.480;10.174;2023-04-01T07:40:39;0.87;;;0.20;;
1004;SDS011;491;53.480;10.174;2023-04-01T07:43:13;0.50;;;0.20;;
1004;SDS011;491;53.480;10.174;2023-04-01T07:45:49;0.40;;;0.20;;
1004;SDS011;491;53.480;10.174;2023-04-01T07:53:48;0.47;;;0.20;;
1004;SDS011;491;53.480;10.174;2023-04-01T07:59:14;0.50;;;0.20;;
1004;SDS011;491;53.480;10.174;2023-04-01T08:02:06;1.57;;;0.20;;
1004;SDS011;491;53.480;10.174;2023-04-01T08:04:54;0.50;;;0.20;;
1004;SDS011;491;53.480;10.174;2023-04-01T08:07:22;0.30;;;0.20;;
1004;SDS011;491;53.480;10.174;2023-04-01T08:20:21;0.80;;;0.20;;
1004;SDS011;491;53.480;10.174;2023-04-01T08:23:32;0.60;;;0.20;;
1004;SDS011;491;53.480;10.174;2023-04-01T08:25:44;0.87;;;0.20;;
1004;SDS011;491;53.480;10.174;2023-04-01T08:28:16;1.30;;;0.20;;
1004;SDS011;491;53.480;10.174;2023-04-01T08:30:44;0.50;;;0.33;;
1004;SDS011;491;53.480;10.174;2023-04-01T08:33:16;0.97;;;0.30;;
1004;SDS011;491;53.480;10.174;2023-04-01T08:35:54;0.40;;;0.20;;
1004;SDS011;491;53.480;10.174;2023-04-01T08:41:07;0.40;;;0.20;;
1004;SDS011;491;53.480;10.174;2023-04-01T08:44:04;0.87;;;0.60;;
1004;SDS011;491;53.480;10.174;2023-04-01T08:54:54;0.40;;;0.20;;
1004;SDS011;491;53.480;10.174;2023-04-01T08:57:24;0.97;;;0.20;;
1004;SDS011;491;53.480;10.174;2023-04-01T09:00:02;0.57;;;0.40;;
1004;SDS011;491;53.480;10.174;2023-04-01T09:02:38;0.63;;;0.30;;
1004;SDS011;491;53.480;10.174;2023-04-01T09:07:46;0.60;;;0.23;;
1004;SDS011;491;53.480;10.174;2023-04-01T09:10:29;0.30;;;0.20;;
1004;SDS011;491;53.480;10.174;2023-04-01T09:12:59;1.00;;;0.20;;
1004;SDS011;491;53.480;10.174;2023-04-01T09:15:47;0.60;;;0.20;;
1004;SDS011;491;53.480;10.174;2023-04-01T09:23:41;0.50;;;0.20;;
1004;SDS011;491;53.480;10.174;2023-04-01T09:26:29;0.70;;;0.20;;
1004;SDS011;491;53.480;10.174;2023-04-01T09:31:46;0.30;;;0.20;;
1004;SDS011;491;53.480;10.174;2023-04-01T09:37:08;0.53;;;0.20;;
1004;SDS011;491;53.480;10.174;2023-04-01T09:39:47;0.53;;;0.23;;
1004;SDS011;491;53.480;10.174;2023-04-01T09:45:00;0.57;;;0.23;;
1004;SDS011;491;53.480;10.174;2023-04-01T09:47:43;1.03;;;0.30;;
1004;SDS011;491;53.480;10.174;2023-04-01T09:58:10;1.53;;;0.30;;
1004;SDS011;491;53.480;10.174;2023-04-01T10:14:06;0.63;;;0.20;;
1004;SDS011;491;53.480;10.174;2023-04-01T10:22:17;1.00;;;0.30;;
1004;SDS011;491;53.480;10.174;2023-04-01T10:25:05;1.03;;;0.20;;
1004;SDS011;491;53.480;10.174;2023-04-01T10:30:17;0.70;;;0.20;;
1004;SDS011;491;53.480;10.174;2023-04-01T10:35:24;0.30;;;0.20;;
1004;SDS011;491;53.480;10.174;2023-04-01T10:38:00;0.50;;;0.20;;
1004;SDS011;491;53.480;10.174;2023-04-01T10:43:40;0.90;;;0.23;;
1004;SDS011;491;53.480;10.174;2023-04-01T10:46:15;0.60;;;0.20;;
1004;SDS011;491;53.480;10.174;2023-04-01T10:51:36;0.50;;;0.30;;
1004;SDS011;491;53.480;10.174;2023-04-01T10:54:17;0.40;;;0.20;;
1004;SDS011;491;53.480;10.174;2023-04-01T11:01:57;0.30;;;0.20;;
1004;SDS011;491;53.480;10.174;2023-04-01T11:10:00;1.57;;;0.20;;
1004;SDS011;491;53.480;10.174;2023-04-01T11:12:39;0.30;;;0.20;;
1004;SDS011;491;53.480;10.174;2023-04-01T11:23:10;1.20;;;0.20;;
1004;SDS011;491;53.480;10.174;2023-04-01T11:25:52;1.23;;;0.20;;
1004;SDS011;491;53.480;10.174;2023-04-01T11:42:01;1.20;;;0.37;;
1004;SDS011;491;53.480;10.174;2023-04-01T11:44:29;1.03;;;0.30;;
1004;SDS011;491;53.480;10.174;2023-04-01T11:49:36;1.00;;;0.60;;
1004;SDS011;491;53.480;10.174;2023-04-01T12:05:47;1.73;;;0.73;;
1004;SDS011;491;53.480;10.174;2023-04-01T12:11:05;0.70;;;0.47;;
1004;SDS011;491;53.480;10.174;2023-04-01T12:13:53;1.17;;;0.60;;
1004;SDS011;491;53.480;10.174;2023-04-01T12:16:51;2.00;;;0.70;;
1004;SDS011;491;53.480;10.174;2023-04-01T12:19:42;2.80;;;1.00;;
1004;SDS011;491;53.480;10.174;2023-04-01T12:22:19;1.57;;;0.50;;
1004;SDS011;491;53.480;10.174;2023-04-01T12:24:53;2.47;;;0.97;;
1004;SDS011;491;53.480;10.174;2023-04-01T12:30:10;2.67;;;0.63;;
1004;SDS011;491;53.480;10.174;2023-04-01T12:43:07;1.83;;;0.70;;
1004;SDS011;491;53.480;10.174;2023-04-01T13:01:36;1.33;;;1.13;;
1004;SDS011;491;53.480;10.174;2023-04-01T13:09:15;2.20;;;0.30;;
1004;SDS011;491;53.480;10.174;2023-04-01T13:17:06;1.73;;;1.10;;
1004;SDS011;491;53.480;10.174;2023-04-01T13:22:04;2.20;;;1.13;;
1004;SDS011;491;53.480;10.174;2023-04-01T13:27:17;1.80;;;1.00;;
1004;SDS011;491;53.480;10.174;2023-04-01T13:32:29;3.40;;;0.80;;
1004;SDS011;491;53.480;10.174;2023-04-01T13:37:39;2.90;;;0.80;;
1004;SDS011;491;53.480;10.174;2023-04-01T13:40:26;1.30;;;0.83;;
1004;SDS011;491;53.480;10.174;2023-04-01T13:42:59;1.67;;;0.97;;
1004;SDS011;491;53.480;10.174;2023-04-01T13:45:31;1.20;;;0.80;;
1004;SDS011;491;53.480;10.174;2023-04-01T13:48:15;1.67;;;0.57;;
1004;SDS011;491;53.480;10.174;2023-04-01T13:53:53;1.60;;;0.60;;
1004;SDS011;491;53.480;10.174;2023-04-01T13:58:43;2.50;;;0.80;;
1004;SDS011;491;53.480;10.174;2023-04-01T14:09:19;1.57;;;0.53;;
1004;SDS011;491;53.480;10.174;2023-04-01T14:14:24;2.70;;;1.10;;
1004;SDS011;491;53.480;10.174;2023-04-01T14:17:10;2.13;;;0.60;;
1004;SDS011;491;53.480;10.174;2023-04-01T14:19:44;2.00;;;0.70;;
1004;SDS011;491;53.480;10.174;2023-04-01T14:22:22;2.70;;;1.50;;
1004;SDS011;491;53.480;10.174;2023-04-01T14:24:57;2.60;;;1.00;;
1004;SDS011;491;53.480;10.174;2023-04-01T14:27:37;2.10;;;0.83;;
1004;SDS011;491;53.480;10.174;2023-04-01T14:30:15;2.13;;;0.97;;
1004;SDS011;491;53.480;10.174;2023-04-01T14:32:51;2.20;;;1.63;;
1004;SDS011;491;53.480;10.174;2023-04-01T14:35:37;3.33;;;0.90;;
1004;SDS011;491;53.480;10.174;2023-04-01T14:40:54;1.33;;;0.63;;
1004;SDS011;491;53.480;10.174;2023-04-01T14:46:08;3.90;;;1.63;;
1004;SDS011;491;53.480;10.174;2023-04-01T14:48:49;2.30;;;1.00;;
1004;SDS011;491;53.480;10.174;2023-04-01T14:51:18;2.20;;;1.17;;
1004;SDS011;491;53.480;10.174;2023-04-01T14:56:44;3.90;;;1.20;;
1004;SDS011;491;53.480;10.174;2023-04-01T15:01:52;2.80;;;1.30;;
1004;SDS011;491;53.480;10.174;2023-04-01T15:07:17;4.63;;;1.57;;
1004;SDS011;491;53.480;10.174;2023-04-01T15:12:49;3.73;;;1.40;;
1004;SDS011;491;53.480;10.174;2023-04-01T15:20:28;3.90;;;0.90;;
1004;SDS011;491;53.480;10.174;2023-04-01T15:28:18;6.13;;;1.80;;
1004;SDS011;491;53.480;10.174;2023-04-01T15:33:33;2.50;;;0.90;;
1004;SDS011;491;53.480;10.174;2023-04-01T15:36:05;7.63;;;2.23;;
1004;SDS011;491;53.480;10.174;2023-04-01T15:38:36;2.83;;;1.30;;
1004;SDS011;491;53.480;10.174;2023-04-01T15:41:14;5.20;;;1.93;;
1004;SDS011;491;53.480;10.174;2023-04-01T15:46:11;4.60;;;1.33;;
1004;SDS011;491;53.480;10.174;2023-04-01T15:53:56;5.30;;;1.53;;
1004;SDS011;491;53.480;10.174;2023-04-01T15:56:36;3.20;;;2.03;;
1004;SDS011;491;53.480;10.174;2023-04-01T15:59:09;4.60;;;1.43;;
1004;SDS011;491;53.480;10.174;2023-04-01T16:01:46;3.60;;;1.90;;
1004;SDS011;491;53.480;10.174;2023-04-01T16:09:39;5.53;;;2.07;;
1004;SDS011;491;53.480;10.174;2023-04-01T16:14:58;5.33;;;2.60;;
1004;SDS011;491;53.480;10.174;2023-04-01T16:22:49;5.43;;;2.63;;
1004;SDS011;491;53.480;10.174;2023-04-01T16:25:20;5.50;;;2.47;;
1004;SDS011;491;53.480;10.174;2023-04-01T16:27:54;7.90;;;2.73;;
1004;SDS011;491;53.480;10.174;2023-04-01T16:35:58;5.93;;;2.23;;
1004;SDS011;491;53.480;10.174;2023-04-01T16:38:43;5.27;;;3.00;;
1004;SDS011;491;53.480;10.174;2023-04-01T16:43:58;2.73;;;1.40;;
1004;SDS011;491;53.480;10.174;2023-04-01T16:51:44;3.40;;;2.33;;
1004;SDS011;491;53.480;10.174;2023-04-01T16:57:02;4.15;;;2.42;;
1004;SDS011;491;53.480;10.174;2023-04-01T16:59:32;5.60;;;2.93;;
1004;SDS011;491;53.480;10.174;2023-04-01T17:04:43;6.63;;;2.90;;
1004;SDS011;491;53.480;10.174;2023-04-01T17:07:52;6.23;;;3.10;;
1004;SDS011;491;53.480;10.174;2023-04-01T17:10:47;6.90;;;3.60;;
1004;SDS011;491;53.480;10.174;2023-04-01T17:18:50;4.67;;;2.90;;
1004;SDS011;491;53.480;10.174;2023-04-01T17:27:03;3.83;;;2.50;;
1004;SDS011;491;53.480;10.174;2023-04-01T17:29:45;10.07;;;2.70;;
1004;SDS011;491;53.480;10.174;2023-04-01T17:35:22;4.43;;;2.33;;
1004;SDS011;491;53.480;10.174;2023-04-01T17:40:36;4.43;;;2.10;;
1004;SDS011;491;53.480;10.174;2023-04-01T17:43:12;3.87;;;2.87;;
1004;SDS011;491;53.480;10.174;2023-04-01T17:45:42;6.53;;;2.90;;
1004;SDS011;491;53.480;10.174;2023-04-01T17:56:07;4.73;;;2.47;;
1004;SDS011;491;53.480;10.174;2023-04-01T18:01:15;8.27;;;2.60;;
1004;SDS011;491;53.480;10.174;2023-04-01T18:03:54;4.13;;;2.70;;
1004;SDS011;491;53.480;10.174;2023-04-01T18:07:04;5.93;;;1.83;;
1004;SDS011;491;53.480;10.174;2023-04-01T18:21:07;4.57;;;2.07;;
1004;SDS011;491;53.480;10.174;2023-04-01T18:23:39;4.17;;;1.30;;
1004;SDS011;491;53.480;10.174;2023-04-01T18:26:28;4.80;;;1.50;;
1004;SDS011;491;53.480;10.174;2023-04-01T18:31:43;2.63;;;1.50;;
1004;SDS011;491;53.480;10.174;2023-04-01T18:37:17;3.97;;;3.40;;
1004;SDS011;491;53.480;10.174;2023-04-01T18:39:48;4.00;;;1.70;;
1004;SDS011;491;53.480;10.174;2023-04-01T18:47:43;6.73;;;2.50;;
1004;SDS011;491;53.480;10.174;2023-04-01T18:50:27;4.47;;;1.47;;
1004;SDS011;491;53.480;10.174;2023-04-01T18:53:15;2.30;;;1.60;;
1004;SDS011;491;53.480;10.174;2023-04-01T18:55:59;3.73;;;1.67;;
1004;SDS011;491;53.480;10.174;2023-04-01T18:58:49;2.93;;;1.90;;
1004;SDS011;491;53.480;10.174;2023-04-01T19:01:26;4.83;;;1.80;;
1004;SDS011;491;53.480;10.174;2023-04-01T19:04:12;4.37;;;1.73;;
1004;SDS011;491;53.480;10.174;2023-04-01T19:06:51;2.57;;;1.77;;
1004;SDS011;491;53.480;10.174;2023-04-01T19:09:21;4.57;;;1.53;;
1004;SDS011;491;53.480;10.174;2023-04-01T19:12:01;4.23;;;1.80;;
1004;SDS011;491;53.480;10.174;2023-04-01T19:17:14;3.00;;;1.90;;
1004;SDS011;491;53.480;10.174;2023-04-01T19:19:45;5.07;;;2.17;;
1004;SDS011;491;53.480;10.174;2023-04-01T19:27:31;3.33;;;1.10;;
1004;SDS011;491;53.480;10.174;2023-04-01T19:30:13;2.67;;;2.30;;
1004;SDS011;491;53.480;10.174;2023-04-01T19:37:51;2.47;;;1.40;;
1004;SDS011;491;53.480;10.174;2023-04-01T19:40:25;3.83;;;1.50;;
1004;SDS011;491;53.480;10.174;2023-04-01T19:45:33;1.97;;;0.93;;
1004;SDS011;491;53.480;10.174;2023-04-01T19:48:09;2.17;;;1.27;;
1004;SDS011;491;53.480;10.174;2023-04-01T19:53:31;3.03;;;1.37;;
1004;SDS011;491;53.480;10.174;2023-04-01T19:56:20;2.17;;;0.90;;
1004;SDS011;491;53.480;10.174;2023-04-01T19:58:54;3.80;;;2.00;;
1004;SDS011;491;53.480;10.174;2023-04-01T20:01:24;4.40;;;1.00;;
1004;SDS011;491;53.480;10.174;2023-04-01T20:03:57;4.10;;;1.57;;
1004;SDS011;491;53.480;10.174;2023-04-01T20:12:01;5.70;;;1.50;;
1004;SDS011;491;53.480;10.174;2023-04-01T20:14:47;3.57;;;1.67;;
1004;SDS011;491;53.480;10.174;2023-04-01T20:17:18;2.73;;;1.40;;
1004;SDS011;491;53.480;10.174;2023-04-01T20:19:51;3.03;;;1.23;;
1004;SDS011;491;53.480;10.174;2023-04-01T20:22:28;2.50;;;1.30;;
1004;SDS011;491;53.480;10.174;2023-04-01T20:25:11;2.60;;;1.67;;
1004;SDS011;491;53.480;10.174;2023-04-01T20:27:44;1.40;;;1.27;;
1004;SDS011;491;53.480;10.174;2023-04-01T20:33:17;3.23;;;0.93;;
1004;SDS011;491;53.480;10.174;2023-04-01T20:41:34;5.50;;;1.37;;
1004;SDS011;491;53.480;10.174;2023-04-01T20:46:45;4.97;;;1.97;;
1004;SDS011;491;53.480;10.174;2023-04-01T21:04:30;6.13;;;1.47;;
1004;SDS011;491;53.480;10.174;2023-04-01T21:07:15;2.20;;;0.80;;
1004;SDS011;491;53.480;10.174;2023-04-01T21:09:50;2.57;;;1.20;;
1004;SDS011;491;53.480;10.174;2023-04-01T21:20:22;3.23;;;0.77;;
1004;SDS011;491;53.480;10.174;2023-04-01T21:23:08;4.53;;;1.40;;
1004;SDS011;491;53.480;10.174;2023-04-01T21:28:12;1.33;;;0.80;;
1004;SDS011;491;53.480;10.174;2023-04-01T21:41:15;4.53;;;1.17;;
1004;SDS011;491;53.480;10.174;2023-04-01T21:43:51;4.03;;;1.00;;
1004;SDS011;491;53.480;10.174;2023-04-01T22:04:45;2.80;;;0.80;;
1004;SDS011;491;53.480;10.174;2023-04-01T22:07:25;2.73;;;1.10;;
1004;SDS011;491;53.480;10.174;2023-04-01T22:14:54;1.27;;;0.53;;
1004;SDS011;491;53.480;10.174;2023-04-01T22:22:45;3.40;;;0.90;;
1004;SDS011;491;53.480;10.174;2023-04-01T22:25:17;1.00;;;0.67;;
1004;SDS011;491;53.480;10.174;2023-04-01T22:27:50;1.30;;;0.40;;
1004;SDS011;491;53.480;10.174;2023-04-01T22:30:24;2.43;;;1.60;;
1004;SDS011;491;53.480;10.174;2023-04-01T22:33:05;3.23;;;0.73;;
1004;SDS011;491;53.480;10.174;2023-04-01T22:40:42;1.90;;;0.97;;
1004;SDS011;491;53.480;10.174;2023-04-01T22:43:11;3.80;;;1.53;;
1004;SDS011;491;53.480;10.174;2023-04-01T22:45:41;2.20;;;1.30;;
1004;SDS011;491;53.480;10.174;2023-04-01T22:51:15;1.73;;;0.93;;
1004;SDS011;491;53.480;10.174;2023-04-01T22:53:57;1.60;;;0.43;;
1004;SDS011;491;53.480;10.174;2023-04-01T22:56:28;4.90;;;0.80;;
1004;SDS011;491;53.480;10.174;2023-04-01T22:58:57;4.90;;;0.50;;
1004;SDS011;491;53.480;10.174;2023-04-01T23:01:29;2.50;;;0.50;;
1004;SDS011;491;53.480;10.174;2023-04-01T23:03:56;3.20;;;1.20;;
1004;SDS011;491;53.480;10.174;2023-04-01T23:06:26;2.03;;;0.43;;
1004;SDS011;491;53.480;10.174;2023-04-01T23:08:58;2.60;;;0.83;;
1004;SDS011;491;53.480;10.174;2023-04-01T23:16:30;3.30;;;0.73;;
1004;SDS011;491;53.480;10.174;2023-04-01T23:19:04;2.10;;;0.60;;
1004;SDS011;491;53.480;10.174;2023-04-01T23:21:45;3.37;;;0.67;;
1004;SDS011;491;53.480;10.174;2023-04-01T23:24:19;4.13;;;0.97;;
1004;SDS011;491;53.480;10.174;2023-04-01T23:26:55;7.57;;;1.57;;
1004;SDS011;491;53.480;10.174;2023-04-01T23:29:24;2.07;;;0.83;;
1004;SDS011;491;53.480;10.174;2023-04-01T23:32:00;3.60;;;1.10;;
1004;SDS011;491;53.480;10.174;2023-04-01T23:34:28;2.67;;;0.93;;
1004;SDS011;491;53.480;10.174;2023-04-01T23:37:12;2.20;;;0.90;;
1004;SDS011;491;53.480;10.174;2023-04-01T23:39:45;2.10;;;1.00;;
1004;SDS011;491;53.480;10.174;2023-04-01T23:42:15;3.83;;;1.27;;
1004;SDS011;491;53.480;10.174;2023-04-01T23:44:44;4.47;;;1.63;;
1004;SDS011;491;53.480;10.174;2023-04-01T23:47:16;3.53;;;0.53;;
1004;SDS011;491;53.480;10.174;2023-04-01T23:49:51;3.90;;;1.43;;